Time;durP1;ratioP1;P1;durP2;ratioP2;P2;SDS_P1;SDS_P2;PMS_P1;PMS_P2;Temp;Humidity;BMP_temperature;BMP_pressure;BME280_temperature;BME280_humidity;BME280_pressure;Samples;Min_cycle;Max_cycle;Signal;HPM_P1;HPM_P2
2022/04/12 00:00:48;;;;;;;7.93;4.50;;;;;;;;;;5038891;28;20056;-73
2022/04/12 00:03:15;;;;;;;9.68;4.40;;;;;;;;;;5046544;28;20503;-73
2022/04/12 00:05:42;;;;;;;9.00;4.85;;;;;;;;;;5043432;28;20051;-73
2022/04/12 00:08:11;;;;;;;9.23;5.25;;;;;;;;;;5037106;28;20060;-73
2022/04/12 00:10:39;;;;;;;12.65;5.15;;;;;;;;;;5040229;28;20106;-72
2022/04/12 00:13:06;;;;;;;9.02;4.78;;;;;;;;;;5046747;28;20810;-72
2022/04/12 00:15:33;;;;;;;11.93;5.30;;;;;;;;;;5036652;28;20053;-72
2022/04/12 00:20:46;;;;;;;11.07;5.30;;;;;;;;;;5035576;28;20059;-72
2022/04/12 00:23:15;;;;;;;10.68;5.00;;;;;;;;;;5037359;28;20049;-72
2022/04/12 00:25:44;;;;;;;9.88;5.10;;;;;;;;;;5039088;28;20053;-72
2022/04/12 00:28:11;;;;;;;11.80;5.32;;;;;;;;;;5043953;28;20061;-72
2022/04/12 00:30:38;;;;;;;9.38;5.13;;;;;;;;;;5040692;28;20056;-72
2022/04/12 00:33:06;;;;;;;10.57;5.50;;;;;;;;;;5038434;28;20500;-72
2022/04/12 00:35:33;;;;;;;8.88;5.05;;;;;;;;;;5041895;28;20056;-72
2022/04/12 00:38:00;;;;;;;8.93;5.70;;;;;;;;;;5038864;28;20402;-72
2022/04/12 00:40:30;;;;;;;10.40;4.93;;;;;;;;;;5044771;28;20045;-72
2022/04/12 00:42:57;;;;;;;9.38;5.70;;;;;;;;;;5041962;28;20154;-72
2022/04/12 00:45:24;;;;;;;11.80;5.90;;;;;;;;;;5041072;28;20053;-72
2022/04/12 00:47:51;;;;;;;11.75;5.20;;;;;;;;;;5039943;28;20720;-72
2022/04/12 00:50:19;;;;;;;10.77;5.35;;;;;;;;;;5043370;28;20048;-72
2022/04/12 00:52:49;;;;;;;10.05;5.85;;;;;;;;;;5046088;28;20065;-72
2022/04/12 00:55:16;;;;;;;9.45;5.50;;;;;;;;;;5040217;28;21195;-72
2022/04/12 00:57:44;;;;;;;8.30;5.60;;;;;;;;;;5042063;28;20052;-72
2022/04/12 01:00:17;;;;;;;9.30;5.38;;;;;;;;;;5040405;28;20116;-72
2022/04/12 01:02:44;;;;;;;10.75;5.68;;;;;;;;;;5043428;28;20061;-73
2022/04/12 01:05:12;;;;;;;11.95;5.65;;;;;;;;;;5043649;28;20111;-73
2022/04/12 01:07:39;;;;;;;12.07;5.50;;;;;;;;;;5041771;28;20053;-73
2022/04/12 01:10:06;;;;;;;11.13;5.55;;;;;;;;;;5040796;28;20604;-74
2022/04/12 01:12:38;;;;;;;8.75;5.25;;;;;;;;;;5040639;28;20175;-74
2022/04/12 01:15:16;;;;;;;7.55;4.85;;;;;;;;;;5041265;28;20060;-74
2022/04/12 01:17:44;;;;;;;11.98;5.28;;;;;;;;;;5036123;28;20041;-74
2022/04/12 01:20:11;;;;;;;7.95;5.07;;;;;;;;;;5034565;28;20114;-74
2022/04/12 01:22:43;;;;;;;10.15;5.13;;;;;;;;;;5036221;28;20072;-74
2022/04/12 01:25:12;;;;;;;9.95;5.15;;;;;;;;;;5043886;28;20103;-74
2022/04/12 01:27:39;;;;;;;10.82;5.25;;;;;;;;;;5042238;28;20045;-74
2022/04/12 01:30:07;;;;;;;9.35;5.47;;;;;;;;;;5045890;28;20091;-74
2022/04/12 01:32:34;;;;;;;8.90;5.18;;;;;;;;;;5033486;28;20103;-74
2022/04/12 01:35:01;;;;;;;9.55;5.35;;;;;;;;;;5044935;28;20111;-74
2022/04/12 01:37:28;;;;;;;8.95;5.53;;;;;;;;;;5034790;28;20056;-74
2022/04/12 01:39:56;;;;;;;8.48;5.55;;;;;;;;;;5040923;28;20626;-74
2022/04/12 01:42:24;;;;;;;8.13;4.65;;;;;;;;;;5041891;28;20048;-74
2022/04/12 01:44:51;;;;;;;11.18;5.40;;;;;;;;;;5039314;28;20114;-74
2022/04/12 01:47:19;;;;;;;10.20;5.20;;;;;;;;;;5041172;28;20060;-74
2022/04/12 01:49:46;;;;;;;12.23;5.07;;;;;;;;;;5043158;28;20060;-74
2022/04/12 01:52:15;;;;;;;9.73;5.03;;;;;;;;;;5037573;28;20500;-74
2022/04/12 01:54:42;;;;;;;9.75;5.15;;;;;;;;;;5043868;28;20056;-74
2022/04/12 01:57:09;;;;;;;10.32;5.50;;;;;;;;;;5038355;28;20045;-74
2022/04/12 01:59:38;;;;;;;7.60;5.20;;;;;;;;;;5039598;28;20067;-74
2022/04/12 02:02:05;;;;;;;10.27;5.15;;;;;;;;;;5032071;28;20060;-74
2022/04/12 02:04:32;;;;;;;8.75;4.95;;;;;;;;;;5044019;28;20053;-74
2022/04/12 02:06:59;;;;;;;13.80;5.57;;;;;;;;;;5037433;28;20041;-74
2022/04/12 02:09:26;;;;;;;11.85;5.63;;;;;;;;;;5038034;28;20056;-74
2022/04/12 02:11:55;;;;;;;8.35;5.45;;;;;;;;;;5042098;28;20492;-74
2022/04/12 02:14:22;;;;;;;7.18;5.75;;;;;;;;;;5042146;28;20060;-74
2022/04/12 02:16:51;;;;;;;12.35;6.60;;;;;;;;;;5039724;28;20447;-74
2022/04/12 02:19:18;;;;;;;12.10;6.50;;;;;;;;;;5035546;28;20057;-74
2022/04/12 02:21:45;;;;;;;12.15;5.93;;;;;;;;;;5039793;28;20508;-74
2022/04/12 02:24:12;;;;;;;14.23;5.95;;;;;;;;;;5042384;28;20450;-74
2022/04/12 02:26:39;;;;;;;10.40;5.43;;;;;;;;;;5038287;28;20103;-74
2022/04/12 02:29:07;;;;;;;11.13;5.90;;;;;;;;;;5038566;28;20061;-74
2022/04/12 02:31:35;;;;;;;11.85;6.32;;;;;;;;;;5044295;28;20099;-74
2022/04/12 02:34:03;;;;;;;10.80;5.90;;;;;;;;;;5031957;28;20156;-74
2022/04/12 02:36:30;;;;;;;10.63;6.15;;;;;;;;;;5035073;28;20144;-74
2022/04/12 02:38:58;;;;;;;12.27;5.60;;;;;;;;;;5040765;28;20060;-74
2022/04/12 02:41:25;;;;;;;16.00;6.32;;;;;;;;;;5044464;28;20115;-74
2022/04/12 02:43:52;;;;;;;10.70;6.35;;;;;;;;;;5038912;28;20049;-75
2022/04/12 02:46:19;;;;;;;11.65;6.45;;;;;;;;;;5041913;28;20049;-74
2022/04/12 02:48:46;;;;;;;13.15;6.53;;;;;;;;;;5040894;28;20064;-74
2022/04/12 02:51:15;;;;;;;13.43;6.47;;;;;;;;;;5043538;28;20055;-74
2022/04/12 02:53:42;;;;;;;10.57;6.97;;;;;;;;;;5040319;28;20065;-74
2022/04/12 02:56:09;;;;;;;13.02;6.57;;;;;;;;;;5039696;28;20644;-74
2022/04/12 02:58:36;;;;;;;12.02;7.18;;;;;;;;;;5036187;28;20111;-74
2022/04/12 03:01:04;;;;;;;9.68;6.50;;;;;;;;;;5039154;28;20578;-74
2022/04/12 03:03:31;;;;;;;11.02;7.00;;;;;;;;;;5040552;28;20060;-74
2022/04/12 03:05:58;;;;;;;9.88;6.57;;;;;;;;;;5042495;28;20064;-74
2022/04/12 03:08:26;;;;;;;13.88;7.38;;;;;;;;;;5036651;28;20053;-74
2022/04/12 03:10:54;;;;;;;9.68;6.60;;;;;;;;;;5041757;28;20745;-74
2022/04/12 03:13:21;;;;;;;11.73;7.45;;;;;;;;;;5042983;28;20415;-74
2022/04/12 03:15:48;;;;;;;13.10;7.43;;;;;;;;;;5041743;28;20116;-74
2022/04/12 03:18:16;;;;;;;11.73;7.80;;;;;;;;;;5039263;28;20107;-74
2022/04/12 03:20:43;;;;;;;14.05;7.55;;;;;;;;;;5043732;28;20210;-74
2022/04/12 03:23:11;;;;;;;12.20;8.20;;;;;;;;;;5037680;28;20053;-74
2022/04/12 03:25:40;;;;;;;11.13;7.28;;;;;;;;;;5035839;28;20060;-74
2022/04/12 03:28:07;;;;;;;14.00;7.53;;;;;;;;;;5034014;28;20159;-74
2022/04/12 03:30:34;;;;;;;12.77;7.25;;;;;;;;;;5040287;28;20044;-74
2022/04/12 03:33:01;;;;;;;11.98;7.53;;;;;;;;;;5038817;28;20061;-74
2022/04/12 03:35:29;;;;;;;13.27;7.50;;;;;;;;;;5044391;28;20052;-74
2022/04/12 03:38:00;;;;;;;15.00;7.65;;;;;;;;;;5046621;28;20114;-74
2022/04/12 03:40:30;;;;;;;11.23;7.45;;;;;;;;;;5038806;28;20076;-74
2022/04/12 03:42:59;;;;;;;14.23;8.10;;;;;;;;;;5042846;28;20052;-74
2022/04/12 03:45:26;;;;;;;15.60;8.38;;;;;;;;;;5038815;28;20124;-74
2022/04/12 03:47:54;;;;;;;14.98;8.13;;;;;;;;;;5041621;28;20076;-74
2022/04/12 03:50:22;;;;;;;13.40;7.93;;;;;;;;;;5040689;28;20141;-74
2022/04/12 03:52:49;;;;;;;11.68;8.05;;;;;;;;;;5039535;28;20056;-74
2022/04/12 03:55:30;;;;;;;14.10;7.72;;;;;;;;;;5036637;28;20162;-74
2022/04/12 03:57:57;;;;;;;13.25;7.90;;;;;;;;;;5043863;28;20817;-74
2022/04/12 04:00:26;;;;;;;12.40;8.05;;;;;;;;;;5039602;28;20532;-74
2022/04/12 04:02:53;;;;;;;14.52;8.00;;;;;;;;;;5041612;28;20160;-74
2022/04/12 04:05:20;;;;;;;16.90;8.30;;;;;;;;;;5042796;28;20454;-74
2022/04/12 04:07:48;;;;;;;13.82;8.15;;;;;;;;;;5040927;28;20053;-74
2022/04/12 04:10:15;;;;;;;15.80;9.07;;;;;;;;;;5037981;28;20041;-74
2022/04/12 04:12:43;;;;;;;13.07;8.00;;;;;;;;;;5045718;28;20048;-74
2022/04/12 04:15:12;;;;;;;12.65;8.35;;;;;;;;;;5039712;28;20071;-74
2022/04/12 04:17:41;;;;;;;11.98;8.63;;;;;;;;;;5043100;28;20056;-74
2022/04/12 04:20:11;;;;;;;15.90;9.30;;;;;;;;;;5040887;28;20056;-74
2022/04/12 04:22:40;;;;;;;15.30;9.20;;;;;;;;;;5042960;28;20053;-74
2022/04/12 04:25:08;;;;;;;16.30;8.98;;;;;;;;;;5039836;28;20045;-74
2022/04/12 04:27:35;;;;;;;13.68;8.73;;;;;;;;;;5046462;28;20045;-74
2022/04/12 04:30:03;;;;;;;15.13;9.35;;;;;;;;;;5042538;28;20053;-74
2022/04/12 04:32:30;;;;;;;12.98;8.98;;;;;;;;;;5040751;28;20057;-74
2022/04/12 04:34:58;;;;;;;17.27;9.18;;;;;;;;;;5042543;28;20079;-74
2022/04/12 04:37:26;;;;;;;13.77;8.80;;;;;;;;;;5042827;28;20052;-74
2022/04/12 04:39:53;;;;;;;11.70;8.30;;;;;;;;;;5040602;28;20084;-74
2022/04/12 04:42:22;;;;;;;15.35;9.02;;;;;;;;;;5043177;28;20118;-74
2022/04/12 04:44:49;;;;;;;13.95;8.80;;;;;;;;;;5044268;28;20585;-74
2022/04/12 04:47:17;;;;;;;14.27;8.93;;;;;;;;;;5045022;28;20670;-74
2022/04/12 04:49:44;;;;;;;12.65;8.57;;;;;;;;;;5044331;28;20049;-74
2022/04/12 04:52:11;;;;;;;15.95;9.07;;;;;;;;;;5040802;28;20045;-73
2022/04/12 04:54:39;;;;;;;13.80;9.27;;;;;;;;;;5043661;28;20115;-73
2022/04/12 04:57:07;;;;;;;15.85;9.23;;;;;;;;;;5038362;28;20056;-73
2022/04/12 04:59:34;;;;;;;13.48;8.68;;;;;;;;;;5043592;28;20447;-73
2022/04/12 05:02:01;;;;;;;14.13;9.38;;;;;;;;;;5040071;28;20048;-73
2022/04/12 05:04:28;;;;;;;13.05;8.73;;;;;;;;;;5042056;28;20056;-73
2022/04/12 05:06:55;;;;;;;12.68;8.82;;;;;;;;;;5042803;28;20048;-73
2022/04/12 05:09:23;;;;;;;14.13;8.75;;;;;;;;;;5042257;28;20111;-73
2022/04/12 05:11:51;;;;;;;14.18;9.07;;;;;;;;;;5039822;28;20057;-73
2022/04/12 05:14:19;;;;;;;15.65;9.00;;;;;;;;;;5044011;28;20049;-73
2022/04/12 05:16:46;;;;;;;16.63;9.10;;;;;;;;;;5039281;28;20147;-74
2022/04/12 05:19:13;;;;;;;14.38;9.05;;;;;;;;;;5050703;28;20487;-74
2022/04/12 05:21:40;;;;;;;12.80;8.73;;;;;;;;;;5043506;28;20064;-74
2022/04/12 05:24:07;;;;;;;14.98;9.00;;;;;;;;;;5041074;28;20079;-74
2022/04/12 05:26:35;;;;;;;17.00;9.20;;;;;;;;;;5039844;28;20056;-74
2022/04/12 05:29:03;;;;;;;14.65;8.98;;;;;;;;;;5035589;28;20053;-74
2022/04/12 05:31:31;;;;;;;13.85;9.60;;;;;;;;;;5038856;28;20427;-74
2022/04/12 05:33:58;;;;;;;16.00;9.27;;;;;;;;;;5034498;28;20062;-75
2022/04/12 05:36:25;;;;;;;13.10;8.50;;;;;;;;;;5032751;28;20130;-74
2022/04/12 05:38:52;;;;;;;12.38;8.65;;;;;;;;;;5039483;28;20053;-74
2022/04/12 05:41:19;;;;;;;12.35;8.55;;;;;;;;;;5036830;28;20750;-74
2022/04/12 05:43:47;;;;;;;12.98;8.88;;;;;;;;;;5041915;28;20541;-74
2022/04/12 05:46:15;;;;;;;12.52;8.90;;;;;;;;;;5046513;28;20149;-74
2022/04/12 05:48:42;;;;;;;13.70;8.93;;;;;;;;;;5051204;28;20584;-74
2022/04/12 05:51:09;;;;;;;13.25;9.38;;;;;;;;;;5049532;28;20061;-74
2022/04/12 05:53:37;;;;;;;11.98;8.75;;;;;;;;;;5056365;28;20048;-74
2022/04/12 05:56:04;;;;;;;12.60;8.52;;;;;;;;;;5052087;28;20052;-74
2022/04/12 05:58:35;;;;;;;15.10;8.77;;;;;;;;;;5046041;28;20044;-74
2022/04/12 06:01:02;;;;;;;13.55;8.50;;;;;;;;;;5050892;28;20116;-74
2022/04/12 06:03:30;;;;;;;12.57;8.80;;;;;;;;;;5045083;28;20076;-74
2022/04/12 06:05:58;;;;;;;15.85;8.55;;;;;;;;;;5046082;28;20060;-73
2022/04/12 06:08:25;;;;;;;13.05;9.18;;;;;;;;;;5041358;28;20102;-73
2022/04/12 06:10:52;;;;;;;14.38;8.43;;;;;;;;;;5040119;28;20056;-73
2022/04/12 06:13:19;;;;;;;13.25;9.25;;;;;;;;;;5037908;28;20669;-73
2022/04/12 06:15:46;;;;;;;13.15;8.98;;;;;;;;;;5037748;28;20589;-73
2022/04/12 06:18:14;;;;;;;13.63;8.70;;;;;;;;;;5043973;28;20507;-73
2022/04/12 06:20:42;;;;;;;12.52;8.60;;;;;;;;;;5041588;28;20048;-73
2022/04/12 06:23:10;;;;;;;13.52;9.10;;;;;;;;;;5044054;28;20265;-73
2022/04/12 06:25:37;;;;;;;14.82;8.70;;;;;;;;;;5044810;28;20060;-73
2022/04/12 06:28:07;;;;;;;16.10;9.23;;;;;;;;;;5033827;28;20045;-73
2022/04/12 06:30:34;;;;;;;12.02;8.82;;;;;;;;;;5042615;28;20056;-73
2022/04/12 06:33:01;;;;;;;18.08;9.27;;;;;;;;;;5044076;28;20107;-73
2022/04/12 06:35:29;;;;;;;16.23;9.05;;;;;;;;;;5046692;28;20056;-73
2022/04/12 06:37:57;;;;;;;12.00;8.35;;;;;;;;;;5038383;28;20068;-73
2022/04/12 06:40:25;;;;;;;13.98;8.82;;;;;;;;;;5038157;28;20057;-73
2022/04/12 06:42:53;;;;;;;12.68;8.65;;;;;;;;;;5037152;28;20049;-73
2022/04/12 06:45:20;;;;;;;13.57;8.70;;;;;;;;;;5037643;28;20053;-73
2022/04/12 06:47:53;;;;;;;16.15;8.65;;;;;;;;;;5038305;28;20447;-73
2022/04/12 06:50:21;;;;;;;13.85;8.70;;;;;;;;;;5037804;28;20089;-73
2022/04/12 06:52:48;;;;;;;14.90;8.68;;;;;;;;;;5046135;28;20064;-73
2022/04/12 06:55:16;;;;;;;13.55;9.15;;;;;;;;;;5037815;28;20060;-73
2022/04/12 06:57:44;;;;;;;12.75;8.77;;;;;;;;;;5042035;28;20080;-73
2022/04/12 07:00:11;;;;;;;12.10;8.30;;;;;;;;;;5038663;28;20596;-73
2022/04/12 07:02:39;;;;;;;13.77;8.40;;;;;;;;;;5039075;28;20061;-73
2022/04/12 07:05:07;;;;;;;17.02;8.68;;;;;;;;;;5041788;28;20049;-74
2022/04/12 07:07:34;;;;;;;15.43;8.32;;;;;;;;;;5047573;28;20049;-74
2022/04/12 07:10:01;;;;;;;13.32;8.20;;;;;;;;;;5033774;28;20052;-74
2022/04/12 07:12:30;;;;;;;13.10;8.23;;;;;;;;;;5039809;28;20104;-74
2022/04/12 07:14:57;;;;;;;11.50;8.15;;;;;;;;;;5041517;28;20048;-74
2022/04/12 07:17:24;;;;;;;13.80;8.50;;;;;;;;;;5047011;28;20519;-74
2022/04/12 07:19:51;;;;;;;14.60;8.88;;;;;;;;;;5044169;28;20045;-75
2022/04/12 07:22:19;;;;;;;14.55;8.57;;;;;;;;;;5046174;28;20389;-74
2022/04/12 07:24:46;;;;;;;11.05;8.02;;;;;;;;;;5043435;28;20060;-74
2022/04/12 07:27:13;;;;;;;16.33;8.55;;;;;;;;;;5039038;28;20061;-74
2022/04/12 07:29:42;;;;;;;13.05;8.90;;;;;;;;;;5046354;28;20086;-74
2022/04/12 07:32:09;;;;;;;15.90;8.55;;;;;;;;;;5046918;28;20048;-74
2022/04/12 07:34:37;;;;;;;12.43;8.68;;;;;;;;;;5051052;28;20056;-74
2022/04/12 07:37:04;;;;;;;15.75;8.52;;;;;;;;;;5045100;28;20133;-74
2022/04/12 07:39:31;;;;;;;15.05;8.23;;;;;;;;;;5048492;28;20463;-74
2022/04/12 07:41:59;;;;;;;12.63;8.02;;;;;;;;;;5041993;28;20068;-74
2022/04/12 07:44:26;;;;;;;12.80;8.10;;;;;;;;;;5042195;28;20457;-74
2022/04/12 07:46:55;;;;;;;12.18;8.00;;;;;;;;;;5053035;28;20541;-75
2022/04/12 07:49:26;;;;;;;11.90;8.73;;;;;;;;;;5050547;28;20514;-74
2022/04/12 07:51:53;;;;;;;13.43;7.65;;;;;;;;;;5050693;28;20135;-74
2022/04/12 07:54:20;;;;;;;11.75;8.05;;;;;;;;;;5053575;28;20122;-74
2022/04/12 07:56:47;;;;;;;12.75;7.15;;;;;;;;;;5047466;28;20588;-74
2022/04/12 07:59:15;;;;;;;11.15;7.85;;;;;;;;;;5052853;28;20048;-74
2022/04/12 08:01:42;;;;;;;16.23;8.35;;;;;;;;;;5038413;28;20049;-74
2022/04/12 08:04:10;;;;;;;11.02;7.80;;;;;;;;;;5051619;28;20076;-74
2022/04/12 08:06:38;;;;;;;13.75;7.50;;;;;;;;;;5053399;28;20052;-74
2022/04/12 08:09:06;;;;;;;14.25;8.00;;;;;;;;;;5054338;28;20187;-74
2022/04/12 08:11:33;;;;;;;11.93;8.32;;;;;;;;;;5045712;28;20044;-74
2022/04/12 08:14:00;;;;;;;13.18;8.25;;;;;;;;;;5044047;28;20459;-74
2022/04/12 08:16:27;;;;;;;15.02;7.57;;;;;;;;;;5051171;28;20049;-74
2022/04/12 08:18:55;;;;;;;12.52;8.07;;;;;;;;;;5041526;28;20057;-74
2022/04/12 08:21:36;;;;;;;12.05;8.07;;;;;;;;;;5050706;28;20438;-74
2022/04/12 08:24:04;;;;;;;14.75;7.72;;;;;;;;;;5051961;28;20060;-74
2022/04/12 08:26:31;;;;;;;11.68;7.97;;;;;;;;;;5040221;28;20471;-74
2022/04/12 08:28:58;;;;;;;11.88;7.63;;;;;;;;;;5044134;28;20052;-74
2022/04/12 08:31:26;;;;;;;12.52;7.78;;;;;;;;;;5054295;28;20454;-74
2022/04/12 08:33:53;;;;;;;12.68;8.23;;;;;;;;;;5042735;28;20052;-74
2022/04/12 08:36:22;;;;;;;9.48;7.57;;;;;;;;;;5050738;28;20055;-74
2022/04/12 08:38:51;;;;;;;9.98;7.68;;;;;;;;;;5046233;28;20084;-74
2022/04/12 08:41:19;;;;;;;10.85;7.45;;;;;;;;;;5053335;28;20586;-74
2022/04/12 08:43:46;;;;;;;10.52;7.32;;;;;;;;;;5049068;28;20439;-74
2022/04/12 08:46:14;;;;;;;12.95;7.20;;;;;;;;;;5049703;28;20137;-74
2022/04/12 08:48:41;;;;;;;12.55;7.28;;;;;;;;;;5049272;28;20791;-74
2022/04/12 08:51:09;;;;;;;11.98;7.63;;;;;;;;;;5050030;28;20052;-72
2022/04/12 08:53:36;;;;;;;11.25;8.18;;;;;;;;;;5043297;28;20521;-72
2022/04/12 08:56:05;;;;;;;11.10;7.15;;;;;;;;;;5055342;28;20045;-73
2022/04/12 08:58:32;;;;;;;11.80;6.90;;;;;;;;;;5042978;28;20057;-72
2022/04/12 09:01:01;;;;;;;10.48;6.80;;;;;;;;;;5042136;28;20056;-72
2022/04/12 09:03:29;;;;;;;11.95;7.50;;;;;;;;;;5044251;28;20068;-72
2022/04/12 09:05:56;;;;;;;10.15;7.07;;;;;;;;;;5039360;28;20064;-72
2022/04/12 09:08:28;;;;;;;12.02;7.20;;;;;;;;;;5042330;28;20588;-72
2022/04/12 09:10:59;;;;;;;12.13;7.00;;;;;;;;;;5044756;28;20114;-72
2022/04/12 09:13:28;;;;;;;10.57;6.97;;;;;;;;;;5038059;28;20055;-72
2022/04/12 09:15:55;;;;;;;11.30;7.13;;;;;;;;;;5043432;28;20068;-73
2022/04/12 09:18:32;;;;;;;10.98;7.45;;;;;;;;;;5038404;28;20064;-73
2022/04/12 09:21:10;;;;;;;10.82;7.60;;;;;;;;;;5043392;28;20128;-73
2022/04/12 09:23:37;;;;;;;13.23;6.32;;;;;;;;;;5039929;28;20060;-73
2022/04/12 09:26:05;;;;;;;12.13;7.10;;;;;;;;;;5046461;28;20502;-73
2022/04/12 09:28:41;;;;;;;10.43;6.82;;;;;;;;;;5041448;28;20064;-73
2022/04/12 09:31:15;;;;;;;11.43;7.13;;;;;;;;;;5043646;28;20110;-73
2022/04/12 09:33:43;;;;;;;10.48;6.88;;;;;;;;;;5041255;28;20416;-73
2022/04/12 09:36:11;;;;;;;11.13;7.20;;;;;;;;;;5044952;28;20049;-73
2022/04/12 09:38:39;;;;;;;13.10;7.20;;;;;;;;;;5045495;28;20080;-73
2022/04/12 09:41:13;;;;;;;10.45;6.97;;;;;;;;;;5043077;28;20044;-73
2022/04/12 09:43:51;;;;;;;9.88;6.80;;;;;;;;;;5046356;28;20053;-73
2022/04/12 09:46:19;;;;;;;16.73;7.40;;;;;;;;;;5047918;28;20145;-73
2022/04/12 09:48:47;;;;;;;11.13;7.13;;;;;;;;;;5035212;28;20065;-73
2022/04/12 09:51:14;;;;;;;10.15;6.93;;;;;;;;;;5046755;28;20136;-73
2022/04/12 09:53:42;;;;;;;10.02;6.47;;;;;;;;;;5046634;28;20048;-73
2022/04/12 09:56:15;;;;;;;10.77;7.85;;;;;;;;;;5046807;28;20045;-73
2022/04/12 09:58:44;;;;;;;16.02;7.00;;;;;;;;;;5047301;28;20139;-73
2022/04/12 10:01:12;;;;;;;11.45;7.57;;;;;;;;;;5049683;28;20784;-73
2022/04/12 10:03:39;;;;;;;9.63;6.93;;;;;;;;;;5044628;28;20052;-73
2022/04/12 10:06:07;;;;;;;11.98;7.00;;;;;;;;;;5039895;28;20107;-73
2022/04/12 10:08:35;;;;;;;9.85;7.32;;;;;;;;;;5048116;28;20440;-73
2022/04/12 10:11:03;;;;;;;12.50;7.35;;;;;;;;;;5043735;28;21078;-73
2022/04/12 10:13:31;;;;;;;10.80;7.40;;;;;;;;;;5047928;28;20052;-73
2022/04/12 10:16:00;;;;;;;13.63;7.43;;;;;;;;;;5045470;28;20061;-73
2022/04/12 10:18:28;;;;;;;10.18;7.10;;;;;;;;;;5042454;28;20057;-73
2022/04/12 10:20:56;;;;;;;11.45;7.15;;;;;;;;;;5044605;28;20511;-73
2022/04/12 10:23:26;;;;;;;14.52;7.80;;;;;;;;;;5046753;28;20057;-73
2022/04/12 10:25:54;;;;;;;11.32;7.50;;;;;;;;;;5045050;28;20092;-73
2022/04/12 10:28:22;;;;;;;11.88;6.97;;;;;;;;;;5043854;28;20056;-73
2022/04/12 10:30:49;;;;;;;12.38;7.28;;;;;;;;;;5046908;28;20048;-73
2022/04/12 10:33:26;;;;;;;10.02;7.03;;;;;;;;;;5047823;28;20075;-73
2022/04/12 10:36:02;;;;;;;10.07;7.60;;;;;;;;;;5045951;28;20148;-73
2022/04/12 10:38:38;;;;;;;11.23;8.07;;;;;;;;;;5041848;28;20052;-73
2022/04/12 10:41:13;;;;;;;11.65;7.30;;;;;;;;;;5046152;28;20045;-73
2022/04/12 10:43:40;;;;;;;15.60;8.00;;;;;;;;;;5041861;28;20060;-72
2022/04/12 10:46:11;;;;;;;12.02;7.53;;;;;;;;;;5048403;28;20060;-71
2022/04/12 10:48:40;;;;;;;10.68;7.05;;;;;;;;;;5044052;28;20158;-71
2022/04/12 10:51:08;;;;;;;10.82;7.38;;;;;;;;;;5045879;28;20061;-71
2022/04/12 10:53:50;;;;;;;11.35;7.85;;;;;;;;;;5048125;28;20048;-71
2022/04/12 10:56:18;;;;;;;11.82;7.35;;;;;;;;;;5046194;28;20135;-71
2022/04/12 10:58:46;;;;;;;11.98;7.43;;;;;;;;;;5043761;28;20064;-71
2022/04/12 11:01:13;;;;;;;12.55;7.47;;;;;;;;;;5044026;28;20487;-71
2022/04/12 11:03:54;;;;;;;12.02;7.63;;;;;;;;;;5044989;28;20049;-71
2022/04/12 11:06:23;;;;;;;11.45;8.07;;;;;;;;;;5048319;28;20056;-71
2022/04/12 11:08:51;;;;;;;13.45;8.05;;;;;;;;;;5043622;28;20045;-71
2022/04/12 11:11:19;;;;;;;13.70;7.65;;;;;;;;;;5053879;28;20053;-71
2022/04/12 11:13:47;;;;;;;12.00;7.43;;;;;;;;;;5051101;28;20049;-71
2022/04/12 11:16:18;;;;;;;11.77;7.57;;;;;;;;;;5050566;28;20055;-71
2022/04/12 11:18:49;;;;;;;10.50;8.00;;;;;;;;;;5045440;28;20059;-71
2022/04/12 11:21:18;;;;;;;9.48;7.32;;;;;;;;;;5047301;28;20045;-71
2022/04/12 11:23:46;;;;;;;14.98;7.45;;;;;;;;;;5045336;28;20072;-71
2022/04/12 11:26:36;;;;;;;10.98;7.60;;;;;;;;;;5045678;28;20052;-72
2022/04/12 11:29:03;;;;;;;13.23;8.18;;;;;;;;;;5050440;28;20137;-71
2022/04/12 11:31:30;;;;;;;13.02;8.13;;;;;;;;;;5049783;28;20041;-71
2022/04/12 11:33:59;;;;;;;13.25;8.60;;;;;;;;;;5045715;28;20084;-71
2022/04/12 11:36:28;;;;;;;10.73;7.63;;;;;;;;;;5048091;28;20159;-72
2022/04/12 11:38:57;;;;;;;11.48;8.20;;;;;;;;;;5052517;28;20090;-72
2022/04/12 11:41:24;;;;;;;13.15;7.90;;;;;;;;;;5043563;28;20431;-72
2022/04/12 11:43:59;;;;;;;11.20;7.80;;;;;;;;;;5051528;28;20052;-72
2022/04/12 11:46:26;;;;;;;10.85;7.70;;;;;;;;;;5049623;28;20057;-71
2022/04/12 11:49:04;;;;;;;9.85;7.32;;;;;;;;;;5046012;28;20061;-71
2022/04/12 11:51:32;;;;;;;10.27;7.38;;;;;;;;;;5047079;28;20041;-71
2022/04/12 11:53:59;;;;;;;13.43;7.70;;;;;;;;;;5053464;28;20045;-71
2022/04/12 11:56:28;;;;;;;9.77;7.13;;;;;;;;;;5035244;28;20056;-72
2022/04/12 11:58:56;;;;;;;13.15;7.35;;;;;;;;;;5053080;28;20152;-71
2022/04/12 12:01:32;;;;;;;11.43;7.28;;;;;;;;;;5044638;28;20506;-71
2022/04/12 12:04:06;;;;;;;9.45;7.18;;;;;;;;;;5050597;28;20511;-71
2022/04/12 12:06:34;;;;;;;11.88;7.30;;;;;;;;;;5055495;28;20082;-71
2022/04/12 12:09:02;;;;;;;9.85;7.25;;;;;;;;;;5043584;28;20045;-72
2022/04/12 12:11:29;;;;;;;9.77;6.60;;;;;;;;;;5042782;28;20406;-71
2022/04/12 12:13:57;;;;;;;10.07;8.00;;;;;;;;;;5040811;28;20079;-71
2022/04/12 12:16:24;;;;;;;10.57;7.40;;;;;;;;;;5041073;28;20158;-71
2022/04/12 12:18:52;;;;;;;13.07;7.35;;;;;;;;;;5042361;28;20110;-71
2022/04/12 12:21:19;;;;;;;13.18;7.10;;;;;;;;;;5043884;28;20045;-71
2022/04/12 12:23:48;;;;;;;12.65;7.10;;;;;;;;;;5041654;28;20722;-72
2022/04/12 12:26:28;;;;;;;12.20;7.40;;;;;;;;;;5047344;28;20411;-71
2022/04/12 12:28:57;;;;;;;12.43;7.38;;;;;;;;;;5040611;28;20060;-71
2022/04/12 12:31:26;;;;;;;11.75;7.32;;;;;;;;;;5052005;28;20349;-71
2022/04/12 12:33:53;;;;;;;8.38;6.47;;;;;;;;;;5050868;28;20068;-71
2022/04/12 12:36:21;;;;;;;10.65;6.53;;;;;;;;;;5045985;28;20504;-71
2022/04/12 12:38:50;;;;;;;9.10;6.05;;;;;;;;;;5043468;28;20053;-71
2022/04/12 12:41:27;;;;;;;15.57;7.10;;;;;;;;;;5050806;28;20048;-71
2022/04/12 12:43:55;;;;;;;9.13;6.53;;;;;;;;;;5041489;28;20045;-71
2022/04/12 12:46:22;;;;;;;11.15;7.13;;;;;;;;;;5041495;28;20055;-71
2022/04/12 12:49:05;;;;;;;9.70;7.00;;;;;;;;;;5042920;28;20136;-71
2022/04/12 12:51:33;;;;;;;13.57;7.03;;;;;;;;;;5045594;28;20041;-71
2022/04/12 12:54:02;;;;;;;11.90;6.90;;;;;;;;;;5044781;28;20561;-71
2022/04/12 12:56:33;;;;;;;13.27;7.38;;;;;;;;;;5042628;28;20053;-71
2022/04/12 12:59:16;;;;;;;11.70;7.00;;;;;;;;;;5036495;28;20160;-71
2022/04/12 13:01:44;;;;;;;14.95;6.38;;;;;;;;;;5045249;28;20052;-71
2022/04/12 13:04:20;;;;;;;10.65;6.60;;;;;;;;;;5042402;28;20045;-71
2022/04/12 13:06:47;;;;;;;11.52;7.78;;;;;;;;;;5038518;28;20122;-71
2022/04/12 13:09:23;;;;;;;9.57;6.88;;;;;;;;;;5039568;28;20053;-71
2022/04/12 13:11:50;;;;;;;12.27;6.53;;;;;;;;;;5041083;28;20051;-71
2022/04/12 13:14:18;;;;;;;14.23;6.95;;;;;;;;;;5037647;28;20053;-71
2022/04/12 13:16:45;;;;;;;11.63;6.88;;;;;;;;;;5043235;28;20056;-71
2022/04/12 13:19:12;;;;;;;12.23;6.50;;;;;;;;;;5038068;28;20056;-72
2022/04/12 13:21:39;;;;;;;12.45;6.70;;;;;;;;;;5041407;28;20480;-73
2022/04/12 13:24:07;;;;;;;12.40;6.93;;;;;;;;;;5040747;28;20063;-72
2022/04/12 13:26:35;;;;;;;12.40;7.30;;;;;;;;;;5039372;28;20067;-72
2022/04/12 13:29:02;;;;;;;12.82;7.25;;;;;;;;;;5041917;28;20049;-73
2022/04/12 13:31:30;;;;;;;11.30;7.10;;;;;;;;;;5045561;28;20107;-73
2022/04/12 13:33:57;;;;;;;10.35;6.88;;;;;;;;;;5040349;28;20052;-73
2022/04/12 13:36:24;;;;;;;13.52;7.55;;;;;;;;;;5050271;28;20105;-73
2022/04/12 13:38:51;;;;;;;10.00;7.38;;;;;;;;;;5042828;28;20048;-73
2022/04/12 13:41:18;;;;;;;12.25;7.35;;;;;;;;;;5045221;28;20087;-72
2022/04/12 13:43:47;;;;;;;10.10;7.45;;;;;;;;;;5042117;28;20107;-72
2022/04/12 13:46:15;;;;;;;12.20;7.65;;;;;;;;;;5049730;28;20052;-72
2022/04/12 13:48:43;;;;;;;12.20;7.85;;;;;;;;;;5051709;28;20056;-72
2022/04/12 13:51:11;;;;;;;22.13;7.97;;;;;;;;;;5041225;28;20040;-72
2022/04/12 13:53:38;;;;;;;13.57;7.82;;;;;;;;;;5048789;28;20053;-72
2022/04/12 13:56:06;;;;;;;14.07;7.95;;;;;;;;;;5047507;28;20059;-72
2022/04/12 13:58:33;;;;;;;10.85;7.85;;;;;;;;;;5045667;28;20063;-72
2022/04/12 14:01:02;;;;;;;10.60;7.72;;;;;;;;;;5044879;28;20045;-72
2022/04/12 14:03:29;;;;;;;11.07;7.82;;;;;;;;;;5050321;28;20056;-72
2022/04/12 14:05:56;;;;;;;13.15;8.30;;;;;;;;;;5038430;28;20442;-72
2022/04/12 14:08:25;;;;;;;13.32;8.25;;;;;;;;;;5043762;28;20064;-72
2022/04/12 14:10:52;;;;;;;11.35;8.23;;;;;;;;;;5042266;28;20040;-72
2022/04/12 14:13:19;;;;;;;11.57;7.82;;;;;;;;;;5048076;28;20053;-72
2022/04/12 14:15:47;;;;;;;12.05;8.27;;;;;;;;;;5042803;28;20105;-72
2022/04/12 14:18:15;;;;;;;13.27;8.48;;;;;;;;;;5050435;28;20079;-72
2022/04/12 14:20:43;;;;;;;12.40;8.55;;;;;;;;;;5050050;28;20095;-71
2022/04/12 14:23:10;;;;;;;14.05;9.18;;;;;;;;;;5045799;28;20057;-72
2022/04/12 14:25:37;;;;;;;13.73;8.88;;;;;;;;;;5048481;28;20059;-72
2022/04/12 14:28:04;;;;;;;13.18;9.00;;;;;;;;;;5051221;28;20057;-72
2022/04/12 14:30:32;;;;;;;12.43;8.57;;;;;;;;;;5046928;28;20076;-72
2022/04/12 14:32:59;;;;;;;13.02;9.15;;;;;;;;;;5049591;28;20114;-72
2022/04/12 14:35:27;;;;;;;12.93;9.23;;;;;;;;;;5047496;28;20094;-71
2022/04/12 14:37:55;;;;;;;13.23;9.15;;;;;;;;;;5046821;28;20064;-71
2022/04/12 14:40:22;;;;;;;13.15;8.45;;;;;;;;;;5047919;28;20485;-71